Time;durP1;ratioP1;P1;durP2;ratioP2;P2;SDS_P1;SDS_P2;PMS_P1;PMS_P2;Temp;Humidity;BMP_temperature;BMP_pressure;BME280_temperature;BME280_humidity;BME280_pressure;Samples;Min_cycle;Max_cycle;Signal;HPM_P1;HPM_P2
2022/12/14 00:00:43;;;;;;;96.85;86.90;;;;;;;-2.96;100.00;101193.28;5118884;28;20124;-85
2022/12/14 00:03:10;;;;;;;87.10;77.63;;;;;;;-2.89;100.00;101207.50;5116824;28;20043;-82
2022/12/14 00:05:38;;;;;;;89.53;73.28;;;;;;;-2.97;100.00;101201.97;5118321;28;20055;-83
2022/12/14 00:08:05;;;;;;;83.88;74.40;;;;;;;-3.17;100.00;101210.34;5118987;28;20063;-86
2022/12/14 00:10:33;;;;;;;106.82;90.43;;;;;;;-2.97;100.00;101216.75;5117963;28;20043;-82
2022/12/14 00:12:59;;;;;;;128.27;98.13;;;;;;;-3.18;100.00;101213.88;5115551;28;20120;-86
2022/12/14 00:15:27;;;;;;;122.10;96.43;;;;;;;-3.16;100.00;101220.63;5117333;28;20055;-85
2022/12/14 00:17:53;;;;;;;129.35;100.57;;;;;;;-3.27;100.00;101216.16;5118279;28;20474;-85
2022/12/14 00:20:22;;;;;;;114.90;94.05;;;;;;;-3.12;100.00;101221.25;5117459;28;20109;-83
2022/12/14 00:22:50;;;;;;;101.15;90.43;;;;;;;-3.10;100.00;101212.41;5116538;28;20126;-82
2022/12/14 00:25:17;;;;;;;122.63;99.82;;;;;;;-2.78;100.00;101209.34;5112059;28;20058;-85
2022/12/14 00:27:44;;;;;;;90.20;79.65;;;;;;;-2.84;100.00;101208.00;5118450;28;20039;-83
2022/12/14 00:30:12;;;;;;;96.60;84.00;;;;;;;-3.10;100.00;101214.19;5116028;28;20166;-81
2022/12/14 00:32:39;;;;;;;89.10;78.72;;;;;;;-3.31;100.00;101214.69;5118531;28;20532;-81
2022/12/14 00:35:08;;;;;;;91.47;73.22;;;;;;;-2.95;100.00;101199.28;5116511;28;20051;-81
2022/12/14 00:37:37;;;;;;;82.82;72.25;;;;;;;-2.92;100.00;101194.72;5115481;28;20123;-83
2022/12/14 00:40:08;;;;;;;82.53;73.75;;;;;;;-3.00;100.00;101195.22;5115791;28;20047;-81
2022/12/14 00:42:35;;;;;;;89.95;79.50;;;;;;;-2.87;100.00;101197.81;5117906;28;20128;-85
2022/12/14 00:45:03;;;;;;;85.18;73.78;;;;;;;-2.93;100.00;101194.84;5116602;28;20504;-86
2022/12/14 00:47:30;;;;;;;82.20;73.30;;;;;;;-2.82;100.00;101200.09;5111556;28;20051;-83
2022/12/14 00:49:56;;;;;;;84.50;75.55;;;;;;;-2.63;100.00;101208.28;5116020;28;20381;-85
2022/12/14 00:52:23;;;;;;;81.60;73.65;;;;;;;-2.65;100.00;101210.16;5119149;28;20051;-83
2022/12/14 00:54:50;;;;;;;76.72;69.07;;;;;;;-2.63;100.00;101216.06;5117329;28;20051;-86
2022/12/14 00:57:18;;;;;;;71.68;64.80;;;;;;;-2.92;100.00;101215.50;5115404;28;20481;-81
2022/12/14 00:59:45;;;;;;;72.03;65.22;;;;;;;-2.91;100.00;101209.34;5105746;28;20062;-84
2022/12/14 01:02:12;;;;;;;79.50;72.35;;;;;;;-2.88;100.00;101219.53;5071215;22;20049;-91
2022/12/14 01:04:38;;;;;;;77.15;70.00;;;;;;;-2.82;100.00;101210.50;5039338;28;20513;-90
2022/12/14 01:07:05;;;;;;;75.03;68.15;;;;;;;-2.85;100.00;101219.31;5052601;28;20098;-91
2022/12/14 01:09:32;;;;;;;75.30;68.03;;;;;;;-2.92;100.00;101205.09;5050071;28;20118;-90
2022/12/14 01:11:59;;;;;;;70.88;64.13;;;;;;;-3.01;100.00;101210.94;5052315;28;20411;-90
2022/12/14 01:14:27;;;;;;;76.38;69.38;;;;;;;-3.16;100.00;101205.03;5052217;28;20045;-90
2022/12/14 01:16:54;;;;;;;86.47;77.68;;;;;;;-3.08;100.00;101191.53;5052435;28;20049;-90
2022/12/14 01:19:21;;;;;;;84.38;76.28;;;;;;;-3.38;100.00;101191.84;5052675;28;20037;-90
2022/12/14 01:21:48;;;;;;;81.03;72.97;;;;;;;-3.70;100.00;101187.03;5052732;28;20494;-91
2022/12/14 01:24:15;;;;;;;88.50;79.10;;;;;;;-3.50;100.00;101176.16;5052462;28;20052;-91
2022/12/14 01:26:42;;;;;;;87.28;77.70;;;;;;;-3.46;100.00;101174.19;5052286;28;20044;-91
2022/12/14 01:29:11;;;;;;;95.68;85.65;;;;;;;-3.42;100.00;101186.00;5052122;28;20045;-91
2022/12/14 01:31:40;;;;;;;91.38;81.78;;;;;;;-3.66;100.00;101188.53;5052287;28;20105;-91
2022/12/14 01:34:07;;;;;;;89.30;80.20;;;;;;;-3.56;100.00;101191.31;5051125;28;20067;-90
2022/12/14 01:36:36;;;;;;;92.85;83.68;;;;;;;-3.64;100.00;101183.22;5052222;28;20114;-91
2022/12/14 01:39:05;;;;;;;96.43;87.10;;;;;;;-3.61;100.00;101177.81;5051753;28;20053;-90
2022/12/14 01:41:34;;;;;;;85.68;77.07;;;;;;;-3.62;100.00;101181.34;5051321;28;20041;-91
2022/12/14 01:44:02;;;;;;;84.72;76.22;;;;;;;-3.58;100.00;101180.19;5051076;28;20051;-90
2022/12/14 01:46:34;;;;;;;79.65;71.00;;;;;;;-3.49;100.00;101192.56;5049811;28;20060;-91
2022/12/14 01:49:07;;;;;;;76.20;68.38;;;;;;;-3.57;100.00;101200.03;5049968;28;20128;-91
2022/12/14 01:51:36;;;;;;;88.32;79.57;;;;;;;-3.72;100.00;101184.56;5051247;28;20052;-91
2022/12/14 01:54:07;;;;;;;87.05;78.55;;;;;;;-3.64;100.00;101199.63;5051105;28;20098;-91
2022/12/14 01:56:37;;;;;;;86.88;77.97;;;;;;;-3.54;100.00;101173.84;5049844;28;20532;-90
2022/12/14 01:59:11;;;;;;;87.40;78.90;;;;;;;-3.33;100.00;101197.53;5049477;28;20052;-91
2022/12/14 02:01:38;;;;;;;84.57;76.45;;;;;;;-3.74;100.00;101188.19;5050823;28;20060;-91
2022/12/14 02:06:50;;;;;;;89.70;81.45;;;;;;;-3.63;100.00;101190.91;5130730;27;20400;-82
2022/12/14 02:09:24;;;;;;;92.70;83.65;;;;;;;-3.63;100.00;101200.44;5090104;28;20040;-83
2022/12/14 02:11:58;;;;;;;97.63;88.53;;;;;;;-3.63;100.00;101203.03;5085386;28;20503;-86
2022/12/14 02:14:26;;;;;;;95.15;85.63;;;;;;;-3.87;100.00;101201.16;5091377;28;20373;-85
2022/12/14 02:16:54;;;;;;;99.15;88.65;;;;;;;-3.54;100.00;101198.09;5091135;28;20055;-82
2022/12/14 02:19:21;;;;;;;112.93;101.20;;;;;;;-3.48;100.00;101191.63;5083295;28;20040;-86
2022/12/14 02:22:14;;;;;;;88.65;79.63;;;;;;;-3.84;100.00;101193.16;5094233;28;20121;-84
2022/12/14 02:25:07;;;;;;;88.85;80.18;;;;;;;-3.56;100.00;101186.97;5063869;28;20053;-83
2022/12/14 02:27:50;;;;;;;92.63;83.03;;;;;;;-3.29;100.00;101179.06;5058662;28;20048;-82
2022/12/14 02:30:20;;;;;;;87.35;78.70;;;;;;;-3.34;100.00;101173.34;5092318;28;20037;-81
2022/12/14 02:33:11;;;;;;;87.78;78.88;;;;;;;-3.38;100.00;101171.06;5093717;28;20056;-86
2022/12/14 02:35:45;;;;;;;85.63;77.15;;;;;;;-3.35;100.00;101176.06;5091826;28;20044;-86
2022/12/14 02:38:27;;;;;;;79.97;72.05;;;;;;;-3.58;100.00;101175.00;5082518;28;20113;-82
2022/12/14 02:41:00;;;;;;;;;;;;;;;-3.50;100.00;101173.56;5076395;28;20048;-84
2022/12/14 02:43:33;;;;;;;89.10;81.13;;;;;;;-3.37;100.00;101170.94;5091622;28;19920;-82
2022/12/14 02:46:09;;;;;;;86.40;78.32;;;;;;;-3.39;100.00;101170.22;5084717;28;20117;-85
2022/12/14 02:48:41;;;;;;;90.45;82.25;;;;;;;-3.39;100.00;101165.03;5071407;28;20279;-83
2022/12/14 02:51:18;;;;;;;93.53;84.57;;;;;;;-3.37;100.00;101168.34;5085319;28;20048;-82
2022/12/14 02:53:54;;;;;;;78.20;70.93;;;;;;;-3.26;100.00;101171.06;5087616;28;20076;-82
2022/12/14 02:56:29;;;;;;;75.15;67.75;;;;;;;-3.49;100.00;101170.03;5089952;28;20048;-82
2022/12/14 02:58:56;;;;;;;79.60;71.97;;;;;;;-3.60;100.00;101182.06;5090997;28;20146;-85
2022/12/14 03:01:28;;;;;;;82.40;74.28;;;;;;;-3.40;100.00;101173.75;5069800;28;20143;-86
2022/12/14 03:03:56;;;;;;;87.93;79.30;;;;;;;-3.28;100.00;101172.09;5077575;28;20126;-82
2022/12/14 03:06:25;;;;;;;80.30;72.45;;;;;;;-3.17;100.00;101173.97;5083175;28;20060;-83
2022/12/14 03:08:55;;;;;;;80.53;72.80;;;;;;;-3.02;100.00;101170.31;5086968;28;20076;-83
2022/12/14 03:11:25;;;;;;;79.53;72.05;;;;;;;-3.34;100.00;101172.50;5081489;28;20416;-82
2022/12/14 03:13:56;;;;;;;87.25;78.85;;;;;;;-3.00;100.00;101176.22;5075261;28;20603;-85
2022/12/14 03:16:28;;;;;;;106.55;89.50;;;;;;;-3.01;100.00;101167.59;5084009;28;20112;-82
2022/12/14 03:19:00;;;;;;;89.50;77.40;;;;;;;-3.04;100.00;101175.59;5060985;28;20044;-83
2022/12/14 03:21:31;;;;;;;97.47;86.80;;;;;;;-3.14;100.00;101164.19;5077750;28;20472;-82
2022/12/14 03:24:02;;;;;;;95.68;85.50;;;;;;;-3.06;100.00;101161.03;5073846;28;20048;-83
2022/12/14 03:26:34;;;;;;;96.88;86.70;;;;;;;-3.04;100.00;101157.41;5068113;28;20109;-83
2022/12/14 03:29:05;;;;;;;82.55;73.75;;;;;;;-2.82;100.00;101155.88;5059544;28;20053;-82
2022/12/14 03:31:42;;;;;;;80.88;73.40;;;;;;;-2.78;100.00;101160.78;5063981;28;20040;-86
2022/12/14 03:34:14;;;;;;;80.72;72.57;;;;;;;-2.62;100.00;101154.47;5076608;28;20048;-83
2022/12/14 03:36:44;;;;;;;80.35;71.72;;;;;;;-2.84;100.00;101156.00;5071180;28;20052;-82
2022/12/14 03:39:17;;;;;;;70.18;62.95;;;;;;;-2.90;100.00;101143.44;5071512;28;20060;-84
2022/12/14 03:41:50;;;;;;;65.25;59.00;;;;;;;-2.65;100.00;101145.13;5077265;28;20045;-81
2022/12/14 03:44:30;;;;;;;72.40;65.60;;;;;;;-2.62;100.00;101147.50;5076132;28;20151;-85
2022/12/14 03:47:09;;;;;;;70.93;64.38;;;;;;;-2.46;100.00;101146.41;5070081;28;20044;-85
2022/12/14 03:49:50;;;;;;;69.80;63.35;;;;;;;-2.52;100.00;101145.06;5057232;28;20443;-83
2022/12/14 03:52:25;;;;;;;64.75;59.00;;;;;;;-2.37;100.00;101145.72;5070748;28;20476;-83
2022/12/14 03:55:07;;;;;;;65.65;59.78;;;;;;;-2.33;100.00;101141.97;5057584;28;20052;-82
2022/12/14 03:57:46;;;;;;;68.63;61.67;;;;;;;-2.38;100.00;101137.09;5067532;28;20044;-81
2022/12/14 04:00:17;;;;;;;68.47;62.13;;;;;;;-2.34;100.00;101132.50;5070263;28;20051;-83
2022/12/14 04:02:50;;;;;;;66.95;60.58;;;;;;;-2.37;100.00;101141.34;5076586;28;20056;-81
2022/12/14 04:05:23;;;;;;;70.57;63.75;;;;;;;-2.61;100.00;101146.56;5065483;28;20045;-85
2022/12/14 04:08:00;;;;;;;70.60;63.67;;;;;;;-2.64;100.00;101148.56;5066921;28;20436;-85
2022/12/14 04:18:58;;;;;;;64.82;58.92;;;;;;;-2.23;100.00;101148.16;5067033;28;20056;-82
2022/12/14 04:21:34;;;;;;;64.45;58.17;;;;;;;-2.10;100.00;101125.47;5065511;28;20071;-83
2022/12/14 04:26:56;;;;;;;76.28;69.78;;;;;;;-2.23;100.00;101126.53;5039320;28;20059;-82
2022/12/14 04:32:17;;;;;;;73.20;66.78;;;;;;;-2.41;100.00;101121.72;5079822;28;20086;-83
2022/12/14 04:34:50;;;;;;;77.63;70.63;;;;;;;-2.36;100.00;101123.97;5075065;28;20048;-85
2022/12/14 04:37:22;;;;;;;73.00;66.30;;;;;;;-2.10;100.00;101109.88;5080912;28;20127;-82
2022/12/14 04:39:53;;;;;;;78.68;71.32;;;;;;;-2.24;100.00;101111.81;5082254;28;20115;-82
2022/12/14 04:42:26;;;;;;;77.25;70.47;;;;;;;-2.22;100.00;101105.56;5085906;28;20053;-81
2022/12/14 04:44:57;;;;;;;77.65;70.70;;;;;;;-2.29;100.00;101106.16;5085351;28;20048;-80
2022/12/14 04:47:32;;;;;;;80.03;73.13;;;;;;;-2.19;100.00;101107.13;5085168;28;20048;-85
2022/12/14 04:50:07;;;;;;;73.75;67.95;;;;;;;-2.19;100.00;101110.56;5063884;28;20049;-86
2022/12/14 04:52:40;;;;;;;68.25;62.83;;;;;;;-2.05;100.00;101099.13;5021544;28;20063;-82
2022/12/14 04:55:14;;;;;;;66.35;61.50;;;;;;;-2.03;100.00;101102.41;5074290;28;20048;-80
2022/12/14 04:57:45;;;;;;;70.20;65.05;;;;;;;-1.92;100.00;101110.28;5081643;28;20067;-81
2022/12/14 05:00:15;;;;;;;76.45;68.35;;;;;;;-1.95;100.00;101112.28;5082390;28;20041;-83
2022/12/14 05:03:00;;;;;;;70.55;64.72;;;;;;;0.25;100.00;101119.16;5070382;28;20118;-85
2022/12/14 05:05:35;;;;;;;64.68;59.33;;;;;;;-1.53;100.00;101117.78;5079650;28;20458;-86
2022/12/14 05:08:09;;;;;;;84.72;73.45;;;;;;;-1.79;100.00;101110.16;5078083;28;20422;-84
2022/12/14 05:10:41;;;;;;;105.63;83.22;;;;;;;-1.85;100.00;101101.06;5081432;28;20140;-87
2022/12/14 05:13:11;;;;;;;;;;;;;;;-1.94;100.00;101096.53;5093920;28;20109;-84
2022/12/14 05:15:42;;;;;;;68.18;61.92;;;;;;;-1.98;100.00;101104.69;5081445;28;19953;-87
2022/12/14 05:18:09;;;;;;;70.72;64.82;;;;;;;-1.94;100.00;101103.50;5082596;28;20048;-88
2022/12/14 05:20:37;;;;;;;60.95;55.78;;;;;;;-1.93;100.00;101102.59;5079251;28;20480;-84
2022/12/14 05:23:04;;;;;;;62.25;56.92;;;;;;;-2.01;100.00;101102.31;5084890;28;20056;-84
2022/12/14 05:25:31;;;;;;;66.70;60.97;;;;;;;-2.20;100.00;101097.66;5076451;28;20469;-86
2022/12/14 05:27:58;;;;;;;69.88;64.13;;;;;;;-2.03;100.00;101102.41;5086372;28;20087;-88
2022/12/14 05:30:25;;;;;;;62.80;57.20;;;;;;;-2.01;100.00;101092.72;5073458;28;20071;-82
2022/12/14 05:32:52;;;;;;;65.32;59.83;;;;;;;-2.03;100.00;101089.41;5078830;28;20047;-84
2022/12/14 05:35:19;;;;;;;64.15;59.13;;;;;;;-2.05;100.00;101085.28;5077206;28;20049;-86
2022/12/14 05:37:48;;;;;;;66.88;60.72;;;;;;;-2.16;100.00;101106.91;5088616;28;20099;-84
2022/12/14 05:40:15;;;;;;;66.63;60.72;;;;;;;-2.08;100.00;101112.38;5080781;28;20045;-87
2022/12/14 05:42:42;;;;;;;63.28;57.80;;;;;;;-2.08;100.00;101122.78;5078324;28;20078;-82
2022/12/14 05:45:11;;;;;;;61.05;55.70;;;;;;;-1.96;100.00;101121.88;5075323;28;20052;-83
2022/12/14 05:47:38;;;;;;;59.75;54.47;;;;;;;-1.86;100.00;101119.41;5080164;28;20549;-84
2022/12/14 05:50:06;;;;;;;60.45;54.95;;;;;;;-1.91;100.00;101124.09;5086325;28;20127;-87
2022/12/14 05:52:33;;;;;;;60.17;55.10;;;;;;;-1.80;100.00;101128.53;5081833;28;20052;-83
2022/12/14 05:55:01;;;;;;;60.42;54.97;;;;;;;-1.77;100.00;101120.47;5081839;28;20411;-86
2022/12/14 05:57:28;;;;;;;62.50;56.63;;;;;;;-1.71;100.00;101135.63;5085646;28;20464;-83
2022/12/14 05:59:54;;;;;;;66.38;60.50;;;;;;;-1.64;100.00;101132.44;5084318;28;20063;-83
2022/12/14 06:02:21;;;;;;;60.58;55.85;;;;;;;-1.74;100.00;101138.47;5078610;28;20052;-87
2022/12/14 06:04:48;;;;;;;63.72;58.33;;;;;;;-1.69;100.00;101134.59;5077932;28;20052;-84
2022/12/14 06:07:15;;;;;;;65.57;59.88;;;;;;;-1.62;100.00;101145.38;5082857;28;20049;-86
2022/12/14 06:09:41;;;;;;;66.15;60.53;;;;;;;-1.62;100.00;101142.75;5083114;28;20129;-83
2022/12/14 06:12:10;;;;;;;61.10;55.90;;;;;;;-1.57;100.00;101139.78;5082437;28;20473;-86
2022/12/14 06:14:36;;;;;;;60.67;55.72;;;;;;;-1.58;100.00;101130.31;5079051;28;20056;-86
2022/12/14 06:17:03;;;;;;;66.28;60.45;;;;;;;-1.60;100.00;101125.25;5077366;28;20036;-84
2022/12/14 06:19:30;;;;;;;63.38;57.38;;;;;;;-1.55;100.00;101123.09;5077966;28;20040;-85
2022/12/14 06:21:57;;;;;;;66.45;60.22;;;;;;;-1.60;100.00;101122.63;5080547;28;20127;-83
2022/12/14 06:24:24;;;;;;;62.90;57.22;;;;;;;-1.61;100.00;101119.19;5077978;28;20052;-86
2022/12/14 06:26:50;;;;;;;62.28;56.55;;;;;;;-1.41;100.00;101132.47;5080062;28;20041;-84
2022/12/14 06:29:20;;;;;;;65.65;59.70;;;;;;;-1.43;100.00;101127.38;5030572;28;20049;-83
2022/12/14 06:31:47;;;;;;;64.13;58.35;;;;;;;-1.44;100.00;101135.31;5076033;28;20122;-86
2022/12/14 06:34:14;;;;;;;64.25;58.50;;;;;;;-1.38;100.00;101135.66;5063336;28;20052;-84
2022/12/14 06:36:43;;;;;;;57.58;52.88;;;;;;;-1.36;100.00;101140.78;5070080;28;20047;-85
2022/12/14 06:39:17;;;;;;;63.13;57.70;;;;;;;-1.47;100.00;101133.78;5024425;28;20059;-85
2022/12/14 06:41:49;;;;;;;67.15;61.63;;;;;;;-1.40;100.00;101141.94;5073949;28;20045;-83
2022/12/14 06:44:16;;;;;;;68.57;62.90;;;;;;;-1.13;100.00;101140.75;5074560;28;20110;-84
2022/12/14 06:46:50;;;;;;;72.05;65.95;;;;;;;-1.23;100.00;101127.63;5072967;28;20049;-83
2022/12/14 06:49:21;;;;;;;62.55;57.25;;;;;;;-1.21;100.00;101121.34;5072127;28;20474;-83
2022/12/14 06:51:51;;;;;;;71.63;65.93;;;;;;;-1.03;100.00;101118.22;5094186;28;20040;-84
2022/12/14 06:54:20;;;;;;;63.78;58.50;;;;;;;-1.16;100.00;101107.94;5080886;28;20040;-83
2022/12/14 06:56:48;;;;;;;65.70;60.10;;;;;;;-1.13;100.00;101105.09;5086630;28;20176;-82
2022/12/14 06:59:15;;;;;;;66.45;61.00;;;;;;;-1.13;100.00;101102.47;5094702;28;20048;-85
2022/12/14 07:01:44;;;;;;;67.85;62.30;;;;;;;-1.10;100.00;101111.84;5090208;28;20056;-83
2022/12/14 07:04:13;;;;;;;65.53;60.15;;;;;;;-0.92;100.00;101118.22;5083708;28;20044;-84
2022/12/14 07:06:41;;;;;;;62.97;57.58;;;;;;;-0.96;100.00;101109.81;5082080;28;20135;-82
2022/12/14 07:09:12;;;;;;;65.10;59.58;;;;;;;-0.81;100.00;101125.19;5085548;28;20040;-83
2022/12/14 07:11:39;;;;;;;60.45;55.38;;;;;;;-0.63;100.00;101120.28;5085554;28;20396;-84
2022/12/14 07:14:06;;;;;;;59.53;54.40;;;;;;;-0.70;100.00;101112.09;5083593;28;20411;-85
2022/12/14 07:16:35;;;;;;;59.65;54.33;;;;;;;-0.56;100.00;101105.78;5087618;28;20048;-87
2022/12/14 07:19:04;;;;;;;63.42;58.13;;;;;;;-0.50;100.00;101102.69;5093171;28;20090;-84
2022/12/14 07:21:32;;;;;;;61.15;55.75;;;;;;;-0.65;100.00;101093.47;5091006;28;20059;-84
2022/12/14 07:24:00;;;;;;;58.78;53.97;;;;;;;-0.43;100.00;101106.44;5080067;28;20408;-86
2022/12/14 07:26:28;;;;;;;60.58;55.53;;;;;;;-0.32;100.00;101118.63;5079401;28;20044;-83
2022/12/14 07:28:57;;;;;;;63.40;57.90;;;;;;;0.01;100.00;101135.09;5079953;28;20522;-86
2022/12/14 07:31:26;;;;;;;67.75;61.80;;;;;;;-0.14;100.00;101145.84;5078143;28;20113;-84
2022/12/14 07:33:54;;;;;;;64.15;58.72;;;;;;;-0.33;100.00;101154.34;5075245;28;20051;-88
2022/12/14 07:36:22;;;;;;;64.60;59.33;;;;;;;0.21;100.00;101161.22;5086771;28;20055;-84
2022/12/14 07:38:52;;;;;;;62.38;57.10;;;;;;;0.35;100.00;101156.59;5085633;28;20040;-82
2022/12/14 07:41:21;;;;;;;59.25;54.22;;;;;;;0.22;100.00;101152.41;5085285;28;20067;-84
2022/12/14 07:43:47;;;;;;;62.15;57.25;;;;;;;0.14;100.00;101148.78;5079966;28;20127;-83
2022/12/14 07:46:16;;;;;;;64.78;59.13;;;;;;;0.53;100.00;101154.22;5081093;28;20074;-84
2022/12/14 07:51:24;;;;;;;68.35;62.33;;;;;;;0.71;100.00;101155.28;5108390;27;20403;-84
2022/12/14 07:53:52;;;;;;;60.15;54.85;;;;;;;0.68;100.00;101147.69;5087499;28;20127;-84
2022/12/14 07:56:21;;;;;;;66.30;60.40;;;;;;;0.80;100.00;101158.91;5094436;28;20048;-87
2022/12/14 07:58:48;;;;;;;68.55;62.47;;;;;;;0.89;100.00;101155.50;5092662;28;20040;-84
2022/12/14 08:01:16;;;;;;;70.32;64.38;;;;;;;0.43;100.00;101148.97;5092535;28;20048;-87
2022/12/14 08:03:46;;;;;;;70.13;62.70;;;;;;;0.52;100.00;101150.81;5088701;28;20052;-84
2022/12/14 08:06:14;;;;;;;74.65;64.20;;;;;;;0.44;100.00;101145.38;5091025;28;20087;-84
2022/12/14 08:08:42;;;;;;;68.82;61.95;;;;;;;0.51;100.00;101150.91;5090415;28;20461;-87
2022/12/14 08:11:09;;;;;;;66.60;60.67;;;;;;;0.48;100.00;101165.06;5098775;28;20541;-84
2022/12/14 08:13:37;;;;;;;67.30;61.20;;;;;;;0.61;100.00;101150.03;5100631;28;20125;-85
2022/12/14 08:16:06;;;;;;;70.25;63.13;;;;;;;0.60;100.00;101156.19;5089144;28;20202;-86
2022/12/14 08:18:33;;;;;;;76.93;68.38;;;;;;;0.44;100.00;101156.66;5085300;28;20051;-84
2022/12/14 08:21:01;;;;;;;63.97;58.50;;;;;;;0.27;100.00;101164.25;5095442;28;20383;-86
2022/12/14 08:23:28;;;;;;;63.58;57.40;;;;;;;0.45;100.00;101147.88;5103395;28;20464;-84
2022/12/14 08:25:58;;;;;;;65.82;59.50;;;;;;;0.50;100.00;101152.69;5095165;28;20048;-85
2022/12/14 08:28:26;;;;;;;65.20;58.50;;;;;;;0.52;100.00;101148.19;5097883;28;20044;-84
2022/12/14 08:30:54;;;;;;;62.10;56.05;;;;;;;0.58;100.00;101142.44;5108196;28;20056;-85
2022/12/14 08:33:21;;;;;;;61.75;56.20;;;;;;;0.72;100.00;101150.88;5092238;28;20051;-83
2022/12/14 08:35:48;;;;;;;59.40;54.33;;;;;;;0.86;100.00;101150.53;5102110;28;20051;-86
2022/12/14 08:38:15;;;;;;;64.50;58.45;;;;;;;0.73;100.00;101140.31;5099016;28;20047;-84
2022/12/14 08:43:21;;;;;;;59.72;54.85;;;;;;;0.73;100.00;101126.38;5087358;27;20382;-84
2022/12/14 08:45:48;;;;;;;60.35;55.47;;;;;;;0.73;100.00;101124.63;5076577;28;20044;-84
2022/12/14 08:48:15;;;;;;;58.70;53.92;;;;;;;1.02;100.00;101124.69;5080282;28;20450;-84
2022/12/14 08:50:42;;;;;;;59.05;53.97;;;;;;;1.22;100.00;101133.41;5083209;28;20057;-85
2022/12/14 08:53:08;;;;;;;58.47;53.40;;;;;;;1.30;100.00;101136.19;5075398;28;20064;-84
2022/12/14 08:55:37;;;;;;;57.08;52.13;;;;;;;1.33;100.00;101146.41;5078933;28;20105;-85
2022/12/14 08:58:04;;;;;;;59.20;54.13;;;;;;;1.36;100.00;101137.44;5073283;28;20045;-87
2022/12/14 09:00:32;;;;;;;61.35;56.30;;;;;;;1.40;100.00;101141.44;5075160;28;20446;-86
2022/12/14 09:02:59;;;;;;;62.28;56.88;;;;;;;1.31;100.00;101137.03;5028974;27;20057;-87
2022/12/14 09:05:25;;;;;;;59.13;54.13;;;;;;;1.71;100.00;101138.72;5007447;28;20124;-84
2022/12/14 09:07:52;;;;;;;60.72;55.53;;;;;;;1.81;100.00;101134.28;5007232;28;20119;-86
2022/12/14 09:10:19;;;;;;;66.47;59.67;;;;;;;1.57;100.00;101119.84;5002758;28;20051;-85
2022/12/14 09:12:46;;;;;;;62.58;56.78;;;;;;;1.96;100.00;101117.16;5008020;28;20053;-85
2022/12/14 09:15:12;;;;;;;60.00;54.90;;;;;;;1.92;100.00;101112.38;5005535;28;20422;-85
2022/12/14 09:17:40;;;;;;;56.90;52.20;;;;;;;2.05;100.00;101108.47;4999513;28;20051;-85
2022/12/14 09:20:09;;;;;;;56.05;51.72;;;;;;;2.01;100.00;101114.16;4998945;28;20054;-86
2022/12/14 09:22:36;;;;;;;60.53;55.88;;;;;;;1.97;100.00;101102.31;4998180;28;20050;-87
2022/12/14 09:25:03;;;;;;;63.97;58.20;;;;;;;2.20;100.00;101106.22;5000257;28;20537;-86
2022/12/14 09:27:30;;;;;;;61.90;57.35;;;;;;;2.09;100.00;101095.09;5001528;28;20046;-87
2022/12/14 09:29:56;;;;;;;61.75;56.45;;;;;;;2.17;100.00;101089.97;5000264;28;20517;-85
2022/12/14 09:32:23;;;;;;;64.60;58.70;;;;;;;2.42;100.00;101099.00;4997496;28;20548;-85
2022/12/14 09:34:51;;;;;;;64.47;59.30;;;;;;;2.54;100.00;101097.84;5000478;28;20046;-85
2022/12/14 09:37:18;;;;;;;62.47;57.53;;;;;;;2.50;100.00;101096.50;4999673;28;20108;-85
2022/12/14 09:39:45;;;;;;;62.75;57.45;;;;;;;2.40;100.00;101080.78;4999456;28;20050;-85
2022/12/14 09:42:23;;;;;;;63.80;58.15;;;;;;;2.21;100.00;101091.31;4999484;28;20050;-87
2022/12/14 09:44:58;;;;;;;65.25;59.85;;;;;;;2.52;100.00;101094.56;5000898;28;20050;-87
2022/12/14 09:47:30;;;;;;;62.08;57.03;;;;;;;2.44;100.00;101086.56;5002171;28;20128;-84
2022/12/14 09:50:02;;;;;;;64.70;59.35;;;;;;;2.48;100.00;101091.41;4993936;28;20102;-85
2022/12/14 09:52:35;;;;;;;62.63;57.70;;;;;;;2.43;100.00;101092.81;5000257;28;20054;-86
2022/12/14 09:55:06;;;;;;;64.88;58.95;;;;;;;2.59;100.00;101084.31;4986021;28;20055;-84
2022/12/14 09:57:37;;;;;;;60.00;55.20;;;;;;;2.50;100.00;101078.94;4983228;28;20057;-84
2022/12/14 10:00:04;;;;;;;61.20;55.60;;;;;;;2.37;100.00;101077.66;4987252;28;20503;-88
2022/12/14 10:02:43;;;;;;;60.22;55.20;;;;;;;2.28;100.00;101072.28;4995046;28;20050;-86
2022/12/14 10:05:32;;;;;;;63.40;58.03;;;;;;;2.25;100.00;101074.38;4993660;28;20116;-85
2022/12/14 10:08:05;;;;;;;60.72;55.63;;;;;;;2.57;100.00;101075.75;4990234;28;20510;-85
2022/12/14 10:10:39;;;;;;;59.83;54.97;;;;;;;2.24;100.00;101078.78;4989779;28;20128;-86
2022/12/14 10:13:16;;;;;;;65.10;58.80;;;;;;;2.24;100.00;101084.03;4989369;28;20586;-84
2022/12/14 10:15:54;;;;;;;67.82;61.00;;;;;;;2.53;100.00;101080.47;4983769;28;20124;-87
2022/12/14 10:18:49;;;;;;;64.43;58.70;;;;;;;2.63;100.00;101075.16;4986614;28;20046;-85
2022/12/14 10:21:22;;;;;;;62.55;57.45;;;;;;;2.85;100.00;101082.66;4978532;28;20058;-85
2022/12/14 10:23:54;;;;;;;63.17;57.75;;;;;;;3.02;100.00;101083.66;4986173;28;20054;-85
2022/12/14 10:26:23;;;;;;;;;;;;;;;3.30;100.00;101079.22;4993122;28;20073;-87
2022/12/14 10:28:55;;;;;;;67.05;61.25;;;;;;;3.21;100.00;101070.44;4985696;28;19999;-84
2022/12/14 10:31:30;;;;;;;60.40;55.70;;;;;;;3.30;100.00;101063.47;4984907;28;20078;-84
2022/12/14 10:33:59;;;;;;;61.05;56.13;;;;;;;4.00;100.00;101066.16;4976466;28;20051;-88
2022/12/14 10:36:52;;;;;;;59.97;55.38;;;;;;;4.18;100.00;101047.69;4993879;28;20061;-86
2022/12/14 10:39:33;;;;;;;;;;;;;;;4.51;100.00;101043.41;4997014;28;20118;-86
2022/12/14 10:42:05;;;;;;;62.25;57.55;;;;;;;4.20;100.00;101037.81;4987430;28;19985;-85
2022/12/14 10:44:40;;;;;;;64.00;59.00;;;;;;;4.62;100.00;101028.31;4982422;28;20051;-86
2022/12/14 10:47:18;;;;;;;64.32;59.38;;;;;;;4.33;100.00;101025.09;4985158;28;20548;-84
2022/12/14 10:49:53;;;;;;;62.90;57.70;;;;;;;4.40;100.00;101020.00;4992810;28;20050;-85
2022/12/14 10:52:25;;;;;;;62.90;58.08;;;;;;;4.36;100.00;101016.06;4984737;28;20077;-84
2022/12/14 10:54:55;;;;;;;62.33;57.47;;;;;;;4.68;100.00;101004.00;4982733;28;20059;-84
2022/12/14 10:57:26;;;;;;;64.35;59.25;;;;;;;4.94;100.00;101001.28;4989940;28;20058;-87
2022/12/14 10:59:53;;;;;;;67.47;61.75;;;;;;;5.42;100.00;100999.66;4984644;28;20138;-86
2022/12/14 11:02:22;;;;;;;67.25;61.10;;;;;;;5.46;100.00;100999.16;4989410;28;20050;-86
2022/12/14 11:04:51;;;;;;;61.60;56.95;;;;;;;5.78;100.00;101002.75;4979443;28;20081;-85
2022/12/14 11:07:22;;;;;;;63.83;58.88;;;;;;;6.13;100.00;100998.88;4988819;28;20105;-84
2022/12/14 11:09:49;;;;;;;65.93;60.72;;;;;;;5.69;100.00;100991.41;4989495;28;20502;-87
2022/12/14 11:12:19;;;;;;;63.65;58.80;;;;;;;5.31;100.00;100978.91;4986167;28;20479;-87
2022/12/14 11:14:58;;;;;;;64.10;58.92;;;;;;;5.54;100.00;100984.31;4985921;28;20061;-84
2022/12/14 11:17:34;;;;;;;63.33;58.53;;;;;;;5.15;100.00;100990.28;4990122;28;20046;-84
2022/12/14 11:20:18;;;;;;;65.50;60.15;;;;;;;5.20;100.00;100983.50;4991328;28;20055;-84
2022/12/14 11:22:48;;;;;;;63.22;58.05;;;;;;;5.53;100.00;100990.59;4984224;28;20128;-85
2022/12/14 11:25:38;;;;;;;63.22;58.30;;;;;;;4.99;100.00;100994.53;4983187;28;20565;-84
2022/12/14 11:28:17;;;;;;;63.13;58.25;;;;;;;5.15;100.00;100995.53;4976220;28;20105;-86
2022/12/14 11:31:03;;;;;;;63.75;58.65;;;;;;;5.30;100.00;100995.72;4984286;28;20129;-84
2022/12/14 11:33:34;;;;;;;65.82;60.15;;;;;;;5.19;100.00;100984.50;4982738;28;20182;-84
2022/12/14 11:36:02;;;;;;;63.15;58.30;;;;;;;5.35;100.00;100970.50;4984433;28;20074;-84
2022/12/14 11:38:31;;;;;;;61.33;56.58;;;;;;;5.32;100.00;100957.66;4985966;28;20050;-83
2022/12/14 11:40:58;;;;;;;57.83;53.40;;;;;;;6.08;100.00;100953.78;4987074;28;20452;-78